Stations météo

Publicité
Grenoble le Versoud, France (7487): Température de l'air & dewpoint: 20.05.2019 21:00:00 - 26.05.2019 21:00:00 (CEST)Grenoble le Versoud, France (7487): Vitesse du vent & gusts: 20.05.2019 21:00:00 - 26.05.2019 21:00:00 (CEST)Grenoble le Versoud, France (7487): Direction du vent: 20.05.2019 21:00:00 - 26.05.2019 21:00:00 (CEST)Grenoble le Versoud, France (7487): reduced air pressure: 20.05.2019 21:00:00 - 26.05.2019 21:00:00 (CEST)Grenoble le Versoud, France (7487): Quantités de précipitations: 20.05.2019 21:00:00 - 26.05.2019 21:00:00 (CEST)
Date & Time tt [°C] td [°C] ff [km/h] ff [knt] fx [km/h] fx [knt] dd ppp [hPa] rr [mm]
26.05.2019 21:00:00 - - - - - - - - -
26.05.2019 20:00:00 20,4 11,1 9 5 24 13 N 1012,6 -
26.05.2019 19:00:00 22,0 11,1 13 7 29 16 NE 1012,6 0,0
26.05.2019 18:00:00 22,8 11,8 16 9 31 17 NNE 1012,8 0,0
26.05.2019 17:00:00 21,5 11,5 18 10 35 19 NE 1013,2 0,0
26.05.2019 16:00:00 21,9 11,3 18 10 37 20 NNE 1013,2 0,0
26.05.2019 15:00:00 23,1 11,8 22 12 31 17 NNE 1013,0 0,0
26.05.2019 14:00:00 22,0 11,4 15 8 28 15 NNE 1013,5 -
26.05.2019 13:00:00 21,2 11,5 16 9 31 17 NNE 1014,3 0,0
26.05.2019 12:00:00 20,4 12,4 21 11 31 17 NNE 1014,7 0,0
26.05.2019 11:00:00 19,1 11,9 22 12 31 17 NNE 1015,1 0,0
26.05.2019 10:00:00 17,2 12,1 5 3 13 7 NE 1015,7 0,0
26.05.2019 09:00:00 14,4 11,9 5 3 8 4 SW 1016,3 0,0
26.05.2019 08:00:00 13,7 11,4 4 2 11 6 NW 1016,5 -
26.05.2019 07:00:00 13,0 11,4 4 2 13 7 NNE 1016,4 0,0
26.05.2019 06:00:00 12,8 11,0 2 1 11 6 ENE 1015,9 0,0
26.05.2019 05:00:00 13,6 11,8 8 4 13 7 NNE 1015,8 0,0
26.05.2019 04:00:00 14,1 12,5 0 0 16 9 N 1015,9 0,0
26.05.2019 03:00:00 14,5 12,9 11 6 22 12 N 1016,1 0,0
26.05.2019 02:00:00 14,2 13,1 2 1 9 5 WNW 1016,4 -
26.05.2019 01:00:00 14,5 13,2 0 0 8 4 N 1016,8 0,4
26.05.2019 00:00:00 14,8 13,0 4 2 16 9 ENE 1017,1 0,2
25.05.2019 23:00:00 15,3 13,0 2 1 24 13 SSW 1016,6 0,2
25.05.2019 22:00:00 16,4 11,1 16 9 41 22 NE 1016,1 0,0
25.05.2019 21:00:00 17,4 13,5 5 3 31 17 E 1015,1 0,6
25.05.2019 20:00:00 18,4 12,8 18 10 28 15 NNE 1014,6 -
25.05.2019 19:00:00 18,0 15,3 4 2 8 4 WSW 1014,6 0,0
25.05.2019 18:00:00 17,8 14,9 5 3 26 14 SSW 1014,6 1,0
25.05.2019 17:00:00 20,9 12,1 15 8 26 14 N 1013,8 0,0
25.05.2019 16:00:00 21,3 12,4 16 9 26 14 NNE 1013,7 0,0
25.05.2019 15:00:00 22,0 14,1 8 4 18 10 NNE 1014,1 0,0
25.05.2019 14:00:00 21,6 12,7 5 3 11 6 NE 1014,6 -
25.05.2019 13:00:00 19,3 11,8 2 1 8 4 NNW 1015,3 0,0
25.05.2019 12:00:00 18,8 11,8 4 2 9 5 WSW 1015,6 0,0
25.05.2019 11:00:00 18,4 13,0 4 2 15 8 NW 1015,5 0,0
25.05.2019 10:00:00 16,4 12,4 4 2 8 4 WSW 1015,7 0,0
25.05.2019 09:00:00 15,9 12,6 2 1 4 2 SSE 1015,3 0,0
25.05.2019 08:00:00 15,1 12,8 2 1 4 2 NW 1014,8 -
25.05.2019 07:00:00 15,1 12,8 2 1 4 2 S 1014,3 0,0
25.05.2019 06:00:00 15,5 12,8 0 0 4 2 N 1013,7 0,0
25.05.2019 05:00:00 15,3 12,1 0 0 4 2 N 1013,2 0,0
25.05.2019 04:00:00 15,7 12,8 4 2 5 3 ENE 1013,2 0,0
25.05.2019 03:00:00 16,1 12,5 0 0 4 2 N 1012,9 0,0
25.05.2019 02:00:00 16,0 12,5 2 1 4 2 NNE 1013,0 -
25.05.2019 01:00:00 16,6 12,9 0 0 5 3 N 1013,0 0,0
25.05.2019 00:00:00 17,2 12,5 2 1 4 2 WNW 1012,8 0,0
24.05.2019 23:00:00 18,3 11,6 0 0 5 3 N 1012,5 -
24.05.2019 22:00:00 20,4 11,3 5 3 15 8 ENE 1011,6 0,0
24.05.2019 21:00:00 22,3 9,1 5 3 18 10 E 1010,9 0,0
24.05.2019 20:00:00 23,4 12,1 5 3 22 12 NE 1010,3 -
24.05.2019 19:00:00 24,3 9,1 8 4 26 14 ENE 1009,7 0,0
24.05.2019 18:00:00 26,3 10,0 8 4 21 11 N 1009,6 0,0
24.05.2019 17:00:00 26,0 11,7 9 5 18 10 NNE 1010,0 0,0
24.05.2019 16:00:00 26,6 10,3 4 2 9 5 S 1010,6 0,0
24.05.2019 15:00:00 25,9 10,1 4 2 13 7 WSW 1011,2 0,0
24.05.2019 14:00:00 24,6 10,8 4 2 13 7 E 1012,0 -
24.05.2019 13:00:00 22,7 10,5 5 3 9 5 N 1012,8 0,0
24.05.2019 12:00:00 21,6 8,8 2 1 11 6 NE 1013,7 0,0
24.05.2019 11:00:00 20,0 10,1 4 2 9 5 NNE 1014,3 0,0
24.05.2019 10:00:00 18,2 10,6 4 2 8 4 N 1014,7 0,0
24.05.2019 09:00:00 15,1 10,7 2 1 5 3 NNW 1015,2 0,2
24.05.2019 08:00:00 11,9 10,1 0 0 5 3 N 1015,8 -
24.05.2019 07:00:00 10,5 9,7 2 1 4 2 NW 1015,9 0,0
24.05.2019 06:00:00 10,1 9,0 0 0 4 2 N 1015,6 0,0
24.05.2019 05:00:00 10,9 9,7 0 0 2 1 N 1015,2 0,0
24.05.2019 04:00:00 11,7 10,3 0 0 5 3 N 1015,3 0,0
24.05.2019 03:00:00 12,2 10,6 0 0 5 3 N 1015,4 0,0
24.05.2019 02:00:00 12,4 10,5 2 1 5 3 N 1015,2 -
24.05.2019 01:00:00 13,5 10,7 2 1 8 4 E 1015,2 0,0
24.05.2019 00:00:00 14,5 11,5 0 0 9 5 N 1015,1 0,0
23.05.2019 23:00:00 15,7 11,7 0 0 8 4 N 1014,9 0,0
23.05.2019 22:00:00 17,3 12,8 4 2 5 3 NNE 1014,4 0,0
23.05.2019 21:00:00 19,7 12,2 4 2 18 10 SW 1013,4 0,0
23.05.2019 20:00:00 23,4 10,4 13 7 16 9 NNE 1012,6 -
23.05.2019 19:00:00 25,3 11,5 11 6 16 9 NNE 1012,3 0,0
23.05.2019 18:00:00 26,3 10,4 4 2 16 9 NNE 1012,5 0,0
23.05.2019 17:00:00 26,0 9,3 5 3 11 6 SW 1012,7 0,0
23.05.2019 16:00:00 25,0 9,3 4 2 11 6 NW 1013,4 0,0
23.05.2019 15:00:00 24,1 10,4 4 2 9 5 NNW 1014,3 0,0
23.05.2019 14:00:00 23,0 9,7 4 2 9 5 NNE 1014,8 -
23.05.2019 13:00:00 21,6 8,1 4 2 11 6 WNW 1015,8 0,0
23.05.2019 12:00:00 20,4 8,7 4 2 13 7 NNE 1016,8 0,0
23.05.2019 11:00:00 18,7 7,5 5 3 13 7 ENE 1017,3 0,0
23.05.2019 10:00:00 16,8 9,5 5 3 9 5 NE 1017,6 0,0
23.05.2019 09:00:00 14,8 8,1 2 1 5 3 SSE 1018,1 0,0
23.05.2019 08:00:00 12,0 9,2 0 0 5 3 N 1018,4 -
23.05.2019 07:00:00 9,1 8,6 0 0 4 2 N 1018,6 0,0
23.05.2019 06:00:00 7,9 7,0 0 0 4 2 N 1018,6 0,0
23.05.2019 05:00:00 8,5 7,4 0 0 8 4 N 1018,3 0,0
23.05.2019 04:00:00 9,4 8,3 0 0 4 2 N 1018,4 0,0
23.05.2019 03:00:00 9,7 8,1 0 0 4 2 N 1018,2 0,0
23.05.2019 02:00:00 10,8 9,1 0 0 4 2 N 1018,0 -
23.05.2019 01:00:00 11,6 9,2 0 0 4 2 N 1017,6 0,0
23.05.2019 00:00:00 12,9 9,3 2 1 4 2 NE 1017,4 0,0
22.05.2019 23:00:00 14,4 8,6 0 0 8 4 N 1017,3 0,0
22.05.2019 22:00:00 17,4 8,3 4 2 26 14 SSE 1016,6 0,0
22.05.2019 21:00:00 19,3 7,4 11 6 28 15 N 1015,8 0,0
22.05.2019 20:00:00 20,9 8,5 16 9 34 18 NNW 1015,2 -
22.05.2019 19:00:00 22,9 9,3 15 8 28 15 N 1014,5 0,0
22.05.2019 18:00:00 22,6 7,9 18 10 28 15 NNE 1014,6 0,0
22.05.2019 17:00:00 22,4 7,8 16 9 31 17 NNE 1014,7 0,0
22.05.2019 16:00:00 23,9 9,1 18 10 28 15 NNE 1014,7 0,0
22.05.2019 15:00:00 23,3 10,4 16 9 26 14 NNE 1014,9 0,0
22.05.2019 14:00:00 22,5 10,3 5 3 21 11 NNE 1015,5 -
22.05.2019 13:00:00 20,9 11,0 5 3 18 10 NNW 1016,2 0,0
22.05.2019 12:00:00 20,0 10,7 4 2 13 7 NE 1016,6 0,0
22.05.2019 11:00:00 18,3 9,4 5 3 13 7 E 1017,1 -
22.05.2019 10:00:00 16,6 9,5 5 3 13 7 NE 1017,6 0,0
22.05.2019 09:00:00 14,4 8,8 2 1 5 3 S 1017,9 0,0
22.05.2019 08:00:00 11,9 9,5 0 0 4 2 N 1017,9 -
22.05.2019 07:00:00 8,8 8,0 0 0 2 1 N 1017,8 0,0
22.05.2019 06:00:00 8,7 7,6 0 0 5 3 N 1017,3 0,0
22.05.2019 05:00:00 9,4 8,0 0 0 8 4 N 1016,9 0,0
22.05.2019 04:00:00 10,1 8,5 0 0 5 3 N 1016,6 0,0
22.05.2019 03:00:00 10,5 8,9 4 2 8 4 SW 1016,4 0,0
22.05.2019 02:00:00 10,9 9,2 0 0 4 2 N 1016,0 -
22.05.2019 01:00:00 12,2 9,6 0 0 5 3 N 1015,9 0,0
22.05.2019 00:00:00 13,1 9,9 2 1 4 2 SSW 1015,7 0,0
21.05.2019 23:00:00 14,7 11,3 2 1 5 3 WSW 1015,4 0,0
21.05.2019 22:00:00 16,9 11,0 2 1 9 5 NNW 1014,6 0,0
21.05.2019 21:00:00 18,2 9,5 5 3 15 8 NNE 1013,8 0,0
21.05.2019 20:00:00 19,3 8,9 5 3 22 12 NE 1013,1 -
21.05.2019 19:00:00 19,8 10,2 15 8 31 17 NNW 1012,4 0,0
21.05.2019 18:00:00 21,7 9,6 16 9 35 19 N 1012,1 0,0
21.05.2019 17:00:00 21,4 9,9 16 9 35 19 N 1012,0 0,0
21.05.2019 16:00:00 22,0 10,2 18 10 34 18 N 1011,9 0,0
21.05.2019 15:00:00 21,9 9,8 21 11 29 16 NNE 1012,0 0,0
21.05.2019 14:00:00 21,5 11,5 21 11 34 18 NE 1012,3 -
21.05.2019 13:00:00 20,1 10,8 21 11 34 18 NE 1012,8 0,0
21.05.2019 12:00:00 17,8 9,9 15 8 24 13 NNE 1013,4 0,0
21.05.2019 11:00:00 16,9 12,0 4 2 13 7 N 1013,6 0,0
21.05.2019 10:00:00 14,7 12,4 2 1 5 3 N 1013,8 0,0
21.05.2019 09:00:00 13,4 12,3 0 0 5 3 N 1013,8 0,0
21.05.2019 08:00:00 12,7 12,1 2 1 5 3 W 1013,6 -
21.05.2019 07:00:00 12,4 11,8 4 2 5 3 S 1013,2 0,2
21.05.2019 06:00:00 12,4 11,8 0 0 4 2 N 1013,1 0,0
21.05.2019 05:00:00 12,4 11,8 0 0 4 2 N 1013,1 0,0
21.05.2019 04:00:00 12,5 11,9 2 1 8 4 N 1013,0 0,0
21.05.2019 03:00:00 12,5 11,9 4 2 5 3 N 1012,9 0,0
21.05.2019 02:00:00 12,6 12,0 4 2 5 3 W 1012,9 -
21.05.2019 01:00:00 12,7 12,1 0 0 8 4 N 1013,1 3,0
21.05.2019 00:00:00 12,8 12,0 2 1 5 3 NW 1013,0 0,6
20.05.2019 23:00:00 12,9 12,1 0 0 5 3 N 1012,7 0,4
20.05.2019 22:00:00 13,1 12,0 0 0 4 2 N 1012,3 0,8
20.05.2019 21:00:00 13,5 12,2 0 0 5 3 N 1011,8 0,6

tt = Température de l'air
td = dewpoint
ff = Vitesse du vent
fx = gusts
dd = Direction du vent
ppp = reduced air pressure
rr = Quantités de précipitations

stations d'obs. à proximité